Time;durP1;ratioP1;P1;durP2;ratioP2;P2;SDS_P1;SDS_P2;PMS_P1;PMS_P2;Temp;Humidity;BMP_temperature;BMP_pressure;BME280_temperature;BME280_humidity;BME280_pressure;Samples;Min_cycle;Max_cycle;Signal;HPM_P1;HPM_P2
2022/06/28 00:00:45;;;;;;;0.50;0.50;;;;;17.70;98782.00;;;;5115049;28;20194;-76
2022/06/28 00:03:14;;;;;;;0.57;0.57;;;;;17.70;98774.00;;;;5114825;28;20213;-77
2022/06/28 00:05:42;;;;;;;0.40;0.40;;;;;17.70;98779.00;;;;5114881;28;20499;-77
2022/06/28 00:08:09;;;;;;;0.90;0.90;;;;;17.70;98777.00;;;;5114782;28;20228;-77
2022/06/28 00:10:35;;;;;;;0.50;0.50;;;;;17.70;98778.00;;;;5113574;28;20218;-77
2022/06/28 00:13:03;;;;;;;0.40;0.40;;;;;17.80;98781.00;;;;5114697;28;20236;-76
2022/06/28 00:18:15;;;;;;;0.57;0.57;;;;;17.70;98797.00;;;;5114546;28;20321;-76
2022/06/28 00:20:44;;;;;;;0.40;0.40;;;;;17.80;98793.00;;;;5114457;28;20212;-76
2022/06/28 00:23:11;;;;;;;0.40;0.40;;;;;17.90;98799.00;;;;5114528;28;20198;-77
2022/06/28 00:25:38;;;;;;;0.40;0.40;;;;;17.70;98799.00;;;;5114534;28;20194;-76
2022/06/28 00:28:07;;;;;;;0.87;0.80;;;;;17.80;98808.00;;;;5114388;28;20226;-76
2022/06/28 00:30:34;;;;;;;0.53;0.53;;;;;17.80;98799.00;;;;5114405;28;20225;-75
2022/06/28 00:33:01;;;;;;;0.87;0.80;;;;;17.70;98805.00;;;;5114587;28;20213;-76
2022/06/28 00:35:28;;;;;;;0.43;0.43;;;;;17.60;98798.00;;;;5114351;28;20221;-76
2022/06/28 00:37:55;;;;;;;0.50;0.50;;;;;17.50;98803.00;;;;5114213;28;20233;-76
2022/06/28 00:40:25;;;;;;;0.60;0.60;;;;;17.70;98802.00;;;;5114372;28;20210;-76
2022/06/28 00:42:54;;;;;;;0.67;0.67;;;;;17.70;98804.00;;;;5114233;28;20198;-77
2022/06/28 00:45:23;;;;;;;0.60;0.60;;;;;17.60;98795.00;;;;5114226;28;20200;-76
2022/06/28 00:47:51;;;;;;;0.40;0.40;;;;;17.60;98798.00;;;;5114076;28;20214;-75
2022/06/28 00:50:18;;;;;;;1.63;1.53;;;;;17.60;98795.00;;;;5114090;28;20229;-77
2022/06/28 00:53:03;;;;;;;0.60;0.60;;;;;17.60;98795.00;;;;5114182;28;20194;-76
2022/06/28 00:55:29;;;;;;;0.47;0.47;;;;;17.60;98797.00;;;;5114098;28;20216;-75
2022/06/28 00:57:56;;;;;;;0.40;0.40;;;;;17.50;98797.00;;;;5113916;28;20214;-76
2022/06/28 01:00:23;;;;;;;0.47;0.47;;;;;17.50;98798.00;;;;5114051;28;20229;-77
2022/06/28 01:02:50;;;;;;;0.50;0.50;;;;;17.50;98810.00;;;;5114008;28;20197;-76
2022/06/28 01:05:17;;;;;;;0.60;0.60;;;;;17.40;98802.00;;;;5113936;28;20201;-76
2022/06/28 01:07:44;;;;;;;0.90;0.90;;;;;17.50;98807.00;;;;5113871;28;20224;-76
2022/06/28 01:10:12;;;;;;;0.60;0.60;;;;;17.40;98801.00;;;;5113821;28;20244;-76
2022/06/28 01:12:38;;;;;;;0.50;0.50;;;;;17.30;98800.00;;;;5113942;28;20231;-77
2022/06/28 01:15:07;;;;;;;1.03;1.03;;;;;17.20;98797.00;;;;5113838;28;20277;-77
2022/06/28 01:17:34;;;;;;;0.30;0.30;;;;;17.10;98805.00;;;;5113737;28;20221;-76
2022/06/28 01:20:00;;;;;;;0.63;0.63;;;;;17.20;98803.00;;;;5095828;28;20205;-76
2022/06/28 01:22:29;;;;;;;0.40;0.40;;;;;17.10;98807.00;;;;5115310;28;20201;-77
2022/06/28 01:24:58;;;;;;;0.60;0.60;;;;;17.20;98808.00;;;;5117263;28;20221;-76
2022/06/28 01:27:26;;;;;;;0.40;0.40;;;;;17.10;98809.00;;;;5117198;28;20241;-76
2022/06/28 01:29:52;;;;;;;0.50;0.50;;;;;17.20;98806.00;;;;5117168;28;20197;-76
2022/06/28 01:32:22;;;;;;;0.60;0.60;;;;;17.20;98804.00;;;;5117232;28;20216;-76
2022/06/28 01:34:48;;;;;;;0.53;0.53;;;;;17.20;98812.00;;;;5117238;28;20269;-76
2022/06/28 01:37:16;;;;;;;0.30;0.30;;;;;17.20;98819.00;;;;5117028;28;20229;-77
2022/06/28 01:39:45;;;;;;;0.63;0.63;;;;;17.10;98813.00;;;;5117076;28;20205;-75
2022/06/28 01:42:13;;;;;;;1.40;0.70;;;;;17.20;98815.00;;;;5117104;28;20194;-75
2022/06/28 01:44:41;;;;;;;0.53;0.53;;;;;17.10;98808.00;;;;5116942;28;20249;-75
2022/06/28 01:47:10;;;;;;;0.50;0.50;;;;;17.20;98802.00;;;;5116951;28;20283;-73
2022/06/28 01:49:37;;;;;;;0.60;0.60;;;;;17.20;98812.00;;;;5116841;28;20194;-73
2022/06/28 01:52:05;;;;;;;0.40;0.40;;;;;17.10;98800.00;;;;5116890;28;20190;-76
2022/06/28 01:54:32;;;;;;;0.50;0.50;;;;;17.10;98807.00;;;;5116909;28;20187;-75
2022/06/28 01:57:00;;;;;;;0.40;0.40;;;;;17.10;98812.00;;;;5116881;28;20221;-76
2022/06/28 01:59:28;;;;;;;0.60;0.60;;;;;17.10;98814.00;;;;5116914;28;20198;-75
2022/06/28 02:01:55;;;;;;;0.60;0.60;;;;;17.00;98817.00;;;;5099158;28;20523;-75
2022/06/28 02:04:25;;;;;;;0.40;0.40;;;;;17.00;98822.00;;;;5116693;28;20537;-76
2022/06/28 02:06:52;;;;;;;0.57;0.57;;;;;17.00;98823.00;;;;5116934;28;20229;-76
2022/06/28 02:09:19;;;;;;;0.80;0.80;;;;;16.90;98815.00;;;;5116736;28;20652;-76
2022/06/28 02:11:46;;;;;;;0.80;0.80;;;;;17.00;98814.00;;;;5116653;28;20273;-76
2022/06/28 02:14:16;;;;;;;0.40;0.40;;;;;17.00;98820.00;;;;5116623;28;20203;-75
2022/06/28 02:16:46;;;;;;;0.47;0.47;;;;;16.90;98821.00;;;;5116507;28;20251;-76
2022/06/28 02:19:13;;;;;;;0.70;0.70;;;;;16.90;98822.00;;;;5116782;28;20202;-76
2022/06/28 02:21:42;;;;;;;0.43;0.43;;;;;16.80;98819.00;;;;5116735;28;20534;-75
2022/06/28 02:24:09;;;;;;;1.17;1.10;;;;;16.90;98823.00;;;;5116579;28;20321;-76
2022/06/28 02:26:39;;;;;;;0.80;0.70;;;;;17.00;98821.00;;;;5116405;28;20555;-76
2022/06/28 02:29:07;;;;;;;0.47;0.47;;;;;16.90;98813.00;;;;5116637;28;20225;-76
2022/06/28 02:31:36;;;;;;;0.60;0.60;;;;;16.80;98813.00;;;;5116498;28;20259;-76
2022/06/28 02:34:04;;;;;;;0.90;0.90;;;;;16.80;98814.00;;;;5115510;28;20209;-76
2022/06/28 02:42:02;;;;;;;0.40;0.40;;;;;16.70;98821.00;;;;5116271;28;20293;-76
2022/06/28 02:44:29;;;;;;;0.43;0.43;;;;;16.60;98830.00;;;;5098277;28;20406;-75
2022/06/28 02:46:58;;;;;;;0.73;0.73;;;;;16.50;98823.00;;;;5116021;28;20217;-76
2022/06/28 02:49:25;;;;;;;0.67;0.67;;;;;16.60;98826.00;;;;5116094;28;20699;-76
2022/06/28 02:51:52;;;;;;;0.50;0.50;;;;;16.60;98823.00;;;;5116060;28;20210;-76
2022/06/28 02:54:19;;;;;;;0.70;0.70;;;;;16.60;98825.00;;;;5115940;28;20190;-76
2022/06/28 02:56:46;;;;;;;1.27;1.23;;;;;16.60;98826.00;;;;5115881;28;20221;-76
2022/06/28 02:59:13;;;;;;;0.40;0.40;;;;;16.60;98835.00;;;;5116078;28;20194;-76
2022/06/28 03:01:39;;;;;;;0.50;0.50;;;;;16.50;98842.00;;;;5097898;28;20266;-77
2022/06/28 03:04:07;;;;;;;3.20;1.03;;;;;16.50;98836.00;;;;5115866;28;20260;-76
2022/06/28 03:06:35;;;;;;;0.67;0.67;;;;;16.40;98830.00;;;;5115833;28;20217;-76
2022/06/28 03:09:02;;;;;;;0.53;0.53;;;;;16.50;98836.00;;;;5115708;28;20201;-77
2022/06/28 03:11:28;;;;;;;0.40;0.40;;;;;16.50;98840.00;;;;5115746;28;20196;-77
2022/06/28 03:13:57;;;;;;;0.50;0.50;;;;;16.40;98840.00;;;;5115645;28;20312;-77
2022/06/28 03:16:24;;;;;;;0.60;0.60;;;;;16.40;98835.00;;;;5115514;28;20259;-76
2022/06/28 03:18:52;;;;;;;0.83;0.83;;;;;16.30;98837.00;;;;5115585;28;20247;-76
2022/06/28 03:21:18;;;;;;;0.77;0.77;;;;;16.30;98829.00;;;;5115506;28;20221;-76
2022/06/28 03:23:46;;;;;;;0.60;0.60;;;;;16.20;98834.00;;;;5115454;28;20597;-75
2022/06/28 03:26:15;;;;;;;0.60;0.60;;;;;16.20;98839.00;;;;5115508;28;20205;-76
2022/06/28 03:28:42;;;;;;;0.53;0.53;;;;;16.10;98831.00;;;;5097857;28;20539;-76
2022/06/28 03:31:08;;;;;;;0.50;0.50;;;;;16.20;98842.00;;;;5115409;28;20210;-76
2022/06/28 03:33:35;;;;;;;0.70;0.70;;;;;16.10;98844.00;;;;5115619;28;20197;-76
2022/06/28 03:36:05;;;;;;;0.80;0.80;;;;;16.10;98842.00;;;;5115799;28;20194;-75
2022/06/28 03:38:31;;;;;;;0.73;0.73;;;;;16.00;98846.00;;;;5121391;28;20202;-76
2022/06/28 03:40:59;;;;;;;0.50;0.50;;;;;16.00;98846.00;;;;5120682;28;20194;-73
2022/06/28 03:43:26;;;;;;;0.40;0.40;;;;;16.20;98852.00;;;;5100861;28;20214;-76
2022/06/28 03:45:52;;;;;;;0.60;0.60;;;;;16.20;98856.00;;;;5117895;28;20222;-76
2022/06/28 03:48:19;;;;;;;0.40;0.40;;;;;16.20;98858.00;;;;5115168;28;20298;-76
2022/06/28 03:50:46;;;;;;;0.50;0.50;;;;;16.20;98857.00;;;;5115224;28;20361;-76
2022/06/28 03:53:15;;;;;;;0.67;0.67;;;;;16.20;98858.00;;;;5115309;28;20554;-76
2022/06/28 03:55:42;;;;;;;0.60;0.60;;;;;16.20;98856.00;;;;5115024;28;20198;-77
2022/06/28 03:58:09;;;;;;;0.60;0.60;;;;;16.20;98858.00;;;;5115122;28;20246;-76
2022/06/28 04:00:36;;;;;;;0.50;0.50;;;;;16.20;98858.00;;;;5115001;28;20267;-77
2022/06/28 04:03:03;;;;;;;0.70;0.70;;;;;16.30;98867.00;;;;5114793;28;20217;-75
2022/06/28 04:05:30;;;;;;;0.40;0.40;;;;;16.20;98866.00;;;;5114947;28;20703;-75
2022/06/28 04:07:57;;;;;;;0.70;0.70;;;;;16.30;98869.00;;;;5114852;28;20641;-74
2022/06/28 04:10:23;;;;;;;1.50;1.23;;;;;16.30;98859.00;;;;5115024;28;20214;-74
2022/06/28 04:12:50;;;;;;;0.57;0.57;;;;;16.40;98865.00;;;;5114816;28;20655;-76
2022/06/28 04:15:18;;;;;;;0.53;0.53;;;;;16.40;98863.00;;;;5114766;28;20199;-76
2022/06/28 04:17:45;;;;;;;0.67;0.50;;;;;16.50;98865.00;;;;5096648;28;20281;-75
2022/06/28 04:20:14;;;;;;;0.50;0.50;;;;;16.60;98862.00;;;;5114712;28;20205;-76
2022/06/28 04:22:40;;;;;;;0.70;0.70;;;;;16.60;98864.00;;;;5114485;28;20632;-76
2022/06/28 04:25:08;;;;;;;0.70;0.70;;;;;16.60;98858.00;;;;5114650;28;20205;-76
2022/06/28 04:27:43;;;;;;;0.57;0.57;;;;;16.50;98850.00;;;;5114515;28;20244;-76
2022/06/28 04:30:13;;;;;;;0.50;0.50;;;;;16.40;98851.00;;;;5096624;28;20522;-75
2022/06/28 04:32:41;;;;;;;0.50;0.50;;;;;16.40;98852.00;;;;5114514;28;20205;-76
2022/06/28 04:35:10;;;;;;;3.30;1.07;;;;;16.40;98845.00;;;;5114368;28;20221;-75
2022/06/28 04:37:37;;;;;;;0.57;0.57;;;;;16.50;98851.00;;;;5114389;28;20206;-75
2022/06/28 04:40:07;;;;;;;0.53;0.53;;;;;16.50;98856.00;;;;5114354;28;20186;-76
2022/06/28 04:42:36;;;;;;;0.60;0.60;;;;;16.50;98862.00;;;;5114237;28;20852;-76
2022/06/28 04:45:06;;;;;;;0.53;0.53;;;;;16.70;98858.00;;;;5114265;28;20693;-76
2022/06/28 04:47:34;;;;;;;0.60;0.60;;;;;16.70;98857.00;;;;5114044;28;20221;-76
2022/06/28 04:50:02;;;;;;;0.60;0.60;;;;;16.70;98868.00;;;;5114067;28;20240;-75
2022/06/28 04:52:29;;;;;;;0.50;0.50;;;;;16.70;98859.00;;;;5114066;28;20201;-75
2022/06/28 04:54:56;;;;;;;0.43;0.43;;;;;16.80;98867.00;;;;5114122;28;20202;-74
2022/06/28 04:57:22;;;;;;;0.50;0.50;;;;;16.80;98858.00;;;;5113375;28;20661;-76
2022/06/28 04:59:49;;;;;;;0.90;0.90;;;;;16.90;98859.00;;;;5113994;28;20198;-76
2022/06/28 05:02:18;;;;;;;0.50;0.50;;;;;17.10;98849.00;;;;5113783;28;20194;-76
2022/06/28 05:04:47;;;;;;;0.53;0.53;;;;;17.10;98857.00;;;;5113935;28;20214;-75
2022/06/28 05:07:15;;;;;;;0.77;0.77;;;;;17.00;98858.00;;;;5113809;28;20652;-75
2022/06/28 05:09:42;;;;;;;0.40;0.40;;;;;16.90;98869.00;;;;5113914;28;20221;-75
2022/06/28 05:12:09;;;;;;;0.70;0.70;;;;;16.90;98875.00;;;;5113889;28;20217;-74
2022/06/28 05:14:36;;;;;;;0.60;0.60;;;;;16.90;98871.00;;;;5095874;28;20523;-75
2022/06/28 05:17:03;;;;;;;0.47;0.47;;;;;16.90;98868.00;;;;5113807;28;20676;-75
2022/06/28 05:19:33;;;;;;;0.57;0.57;;;;;17.00;98863.00;;;;5113767;28;20267;-76
2022/06/28 05:22:00;;;;;;;1.90;0.57;;;;;17.30;98855.00;;;;5113766;28;20319;-75
2022/06/28 05:24:28;;;;;;;0.90;0.90;;;;;17.40;98852.00;;;;5113713;28;20649;-76
2022/06/28 05:26:54;;;;;;;0.50;0.50;;;;;17.50;98850.00;;;;5113553;28;20220;-75
2022/06/28 05:29:21;;;;;;;0.80;0.80;;;;;17.60;98841.00;;;;5113691;28;20218;-74
2022/06/28 05:31:50;;;;;;;0.43;0.43;;;;;17.60;98853.00;;;;5114162;28;20285;-76
2022/06/28 05:34:17;;;;;;;0.47;0.47;;;;;17.70;98860.00;;;;5113781;28;20190;-76
2022/06/28 05:36:44;;;;;;;0.67;0.67;;;;;17.80;98861.00;;;;5113661;28;20218;-75
2022/06/28 05:39:11;;;;;;;0.47;0.47;;;;;17.80;98856.00;;;;5113611;28;20194;-76
2022/06/28 05:41:41;;;;;;;0.83;0.83;;;;;17.80;98860.00;;;;5113474;28;20201;-73
2022/06/28 05:44:09;;;;;;;0.80;0.80;;;;;17.90;98860.00;;;;5113494;28;20194;-76
2022/06/28 05:46:36;;;;;;;0.80;0.80;;;;;17.90;98864.00;;;;5113313;28;20205;-76
2022/06/28 05:49:02;;;;;;;0.80;0.80;;;;;18.00;98861.00;;;;5113345;28;20198;-75
2022/06/28 05:51:29;;;;;;;0.83;0.83;;;;;18.00;98856.00;;;;5113482;28;20205;-76
2022/06/28 05:53:58;;;;;;;0.90;0.90;;;;;18.10;98856.00;;;;5113430;28;20198;-78
2022/06/28 05:56:25;;;;;;;0.63;0.63;;;;;18.30;98856.00;;;;5095633;28;20691;-79
2022/06/28 05:58:53;;;;;;;0.50;0.50;;;;;18.40;98861.00;;;;5095375;28;20659;-79
2022/06/28 06:01:23;;;;;;;0.67;0.67;;;;;18.70;98858.00;;;;5113428;28;20190;-78
2022/06/28 06:03:50;;;;;;;0.80;0.80;;;;;18.80;98855.00;;;;5113279;28;20208;-76
2022/06/28 06:06:17;;;;;;;1.73;1.27;;;;;18.70;98851.00;;;;5113170;28;20221;-76
2022/06/28 06:08:44;;;;;;;0.80;0.80;;;;;18.60;98865.00;;;;5113479;28;20222;-75
2022/06/28 06:11:11;;;;;;;0.90;0.90;;;;;18.80;98859.00;;;;5116649;28;20190;-72
2022/06/28 06:13:38;;;;;;;0.50;0.50;;;;;18.70;98853.00;;;;5116646;28;20514;-71
2022/06/28 06:16:05;;;;;;;0.83;0.80;;;;;18.60;98854.00;;;;5116435;28;20233;-72
2022/06/28 06:18:35;;;;;;;0.70;0.70;;;;;18.80;98842.00;;;;5116414;28;20194;-74
2022/06/28 06:21:04;;;;;;;1.13;1.13;;;;;19.00;98846.00;;;;5116350;28;20197;-72
2022/06/28 06:23:31;;;;;;;0.80;0.80;;;;;19.10;98838.00;;;;5116516;28;20267;-75
2022/06/28 06:25:58;;;;;;;1.10;1.03;;;;;19.10;98834.00;;;;5116376;28;20218;-75
2022/06/28 06:28:25;;;;;;;1.03;1.03;;;;;19.20;98834.00;;;;5116236;28;20664;-74
2022/06/28 06:30:51;;;;;;;1.20;1.20;;;;;19.30;98832.00;;;;5116256;28;20605;-74
2022/06/28 06:33:19;;;;;;;0.33;0.33;;;;;19.40;98827.00;;;;5098341;28;20202;-73
2022/06/28 06:35:46;;;;;;;1.10;1.10;;;;;19.40;98826.00;;;;5116264;28;20213;-74
2022/06/28 06:38:13;;;;;;;0.90;0.90;;;;;19.50;98827.00;;;;5116215;28;20642;-74
2022/06/28 06:40:40;;;;;;;0.60;0.60;;;;;19.50;98827.00;;;;5116135;28;20226;-73
2022/06/28 06:43:09;;;;;;;0.60;0.60;;;;;19.60;98830.00;;;;5116204;28;20198;-74
2022/06/28 06:45:36;;;;;;;1.90;1.80;;;;;19.60;98841.00;;;;5116168;28;20190;-75
2022/06/28 06:48:05;;;;;;;0.93;0.93;;;;;19.60;98827.00;;;;5115917;28;20222;-73
2022/06/28 06:50:32;;;;;;;0.70;0.70;;;;;19.80;98831.00;;;;5116026;28;20664;-74
2022/06/28 06:53:02;;;;;;;0.60;0.60;;;;;20.00;98827.00;;;;5116002;28;20519;-74
2022/06/28 06:55:29;;;;;;;1.07;1.07;;;;;20.20;98820.00;;;;5115957;28;20190;-74
2022/06/28 06:57:56;;;;;;;0.80;0.80;;;;;20.40;98813.00;;;;5115998;28;20206;-72
2022/06/28 07:00:23;;;;;;;0.80;0.80;;;;;20.40;98807.00;;;;5115809;28;20232;-73
2022/06/28 07:02:50;;;;;;;0.40;0.40;;;;;20.50;98796.00;;;;5115888;28;20189;-73
2022/06/28 07:05:16;;;;;;;0.80;0.80;;;;;20.70;98798.00;;;;5115852;28;20213;-74
2022/06/28 07:07:44;;;;;;;0.50;0.50;;;;;20.60;98791.00;;;;5115587;28;20225;-73
2022/06/28 07:10:11;;;;;;;0.53;0.53;;;;;20.60;98772.00;;;;5115781;28;20213;-73
2022/06/28 07:12:38;;;;;;;1.00;1.00;;;;;20.40;98764.00;;;;5115623;28;20190;-75
2022/06/28 07:15:05;;;;;;;0.77;0.77;;;;;20.30;98750.00;;;;5115696;28;20229;-73
2022/06/28 07:17:32;;;;;;;0.80;0.80;;;;;20.20;98739.00;;;;5097673;28;20628;-75
2022/06/28 07:19:59;;;;;;;0.60;0.60;;;;;20.30;98743.00;;;;5114972;28;20190;-74
2022/06/28 07:22:26;;;;;;;0.50;0.50;;;;;20.20;98748.00;;;;5115758;28;20198;-73
2022/06/28 07:24:56;;;;;;;0.60;0.60;;;;;20.00;98772.00;;;;5115458;28;20201;-75
2022/06/28 07:27:23;;;;;;;1.00;1.00;;;;;19.80;98774.00;;;;5115525;28;20229;-72
2022/06/28 07:29:50;;;;;;;1.20;1.20;;;;;19.90;98775.00;;;;5115421;28;20197;-73
2022/06/28 07:32:16;;;;;;;0.30;0.30;;;;;19.80;98779.00;;;;5115471;28;20193;-73
2022/06/28 07:34:43;;;;;;;0.80;0.80;;;;;19.90;98778.00;;;;5115312;28;20194;-73
2022/06/28 07:37:10;;;;;;;0.60;0.60;;;;;20.10;98775.00;;;;5115276;28;20204;-74
2022/06/28 07:39:40;;;;;;;1.27;1.23;;;;;20.30;98784.00;;;;5115095;28;20229;-73
2022/06/28 07:42:07;;;;;;;0.60;0.60;;;;;20.40;98784.00;;;;5115283;28;20174;-74
2022/06/28 07:44:35;;;;;;;0.67;0.67;;;;;20.50;98802.00;;;;5115136;28;20194;-73
2022/06/28 07:47:01;;;;;;;0.53;0.53;;;;;20.50;98797.00;;;;5114992;28;20222;-73
2022/06/28 07:54:57;;;;;;;0.60;0.60;;;;;20.70;98800.00;;;;5114893;28;20197;-74
2022/06/28 07:57:25;;;;;;;0.60;0.60;;;;;20.70;98796.00;;;;5114980;28;20205;-74
2022/06/28 07:59:51;;;;;;;0.60;0.60;;;;;20.50;98786.00;;;;5114823;28;20242;-74
2022/06/28 08:02:18;;;;;;;0.50;0.50;;;;;20.60;98792.00;;;;5114844;28;20215;-75
2022/06/28 08:04:45;;;;;;;0.60;0.60;;;;;20.70;98780.00;;;;5114831;28;20644;-74
2022/06/28 08:07:13;;;;;;;0.80;0.80;;;;;20.80;98781.00;;;;5114713;28;20222;-73
2022/06/28 08:09:40;;;;;;;0.53;0.53;;;;;20.70;98780.00;;;;5115003;28;20193;-71
2022/06/28 08:12:08;;;;;;;0.57;0.57;;;;;20.60;98779.00;;;;5114543;28;20564;-72
2022/06/28 08:14:36;;;;;;;0.60;0.60;;;;;20.60;98785.00;;;;5114670;28;20668;-73
2022/06/28 08:17:03;;;;;;;0.67;0.67;;;;;20.60;98779.00;;;;5114756;28;20201;-72
2022/06/28 08:19:30;;;;;;;0.60;0.60;;;;;20.80;98783.00;;;;5114592;28;20229;-73
2022/06/28 08:21:57;;;;;;;0.80;0.80;;;;;20.80;98768.00;;;;5114567;28;20200;-74
2022/06/28 08:24:24;;;;;;;1.00;1.00;;;;;21.00;98762.00;;;;5114780;28;20231;-74
2022/06/28 08:26:52;;;;;;;0.40;0.40;;;;;21.10;98749.00;;;;5114803;28;20309;-74
2022/06/28 08:29:21;;;;;;;0.73;0.73;;;;;21.20;98730.00;;;;5114563;28;20235;-75
2022/06/28 08:31:49;;;;;;;0.40;0.40;;;;;21.30;98733.00;;;;5095791;28;20546;-74
2022/06/28 08:34:16;;;;;;;0.60;0.60;;;;;21.40;98737.00;;;;5114436;28;20190;-75
2022/06/28 08:36:42;;;;;;;0.40;0.40;;;;;21.60;98744.00;;;;5114527;28;20208;-75
2022/06/28 08:39:09;;;;;;;0.50;0.50;;;;;21.60;98755.00;;;;5114403;28;20222;-75
2022/06/28 08:41:37;;;;;;;0.57;0.57;;;;;21.70;98747.00;;;;5114384;28;20210;-74
2022/06/28 08:44:04;;;;;;;1.83;0.80;;;;;22.00;98749.00;;;;5114291;28;20202;-74
2022/06/28 08:46:34;;;;;;;0.53;0.53;;;;;22.10;98747.00;;;;5114176;28;20226;-73
2022/06/28 08:49:06;;;;;;;0.65;0.65;;;;;22.30;98743.00;;;;5114179;28;20226;-74
2022/06/28 08:51:33;;;;;;;0.70;0.70;;;;;22.50;98738.00;;;;5114085;28;20217;-72
2022/06/28 08:54:02;;;;;;;0.50;0.50;;;;;22.70;98737.00;;;;5114160;28;20260;-74
2022/06/28 08:56:29;;;;;;;0.68;0.68;;;;;22.50;98735.00;;;;5114141;28;20201;-74
2022/06/28 08:58:59;;;;;;;0.52;0.52;;;;;22.50;98731.00;;;;5095871;28;20644;-74
2022/06/28 09:01:26;;;;;;;0.55;0.55;;;;;22.50;98733.00;;;;5114027;28;20255;-73
2022/06/28 09:03:54;;;;;;;0.32;0.32;;;;;22.40;98728.00;;;;5113947;28;20190;-74
2022/06/28 09:06:24;;;;;;;0.88;0.57;;;;;22.40;98723.00;;;;5096230;28;20198;-73
2022/06/28 09:08:53;;;;;;;0.43;0.43;;;;;22.50;98723.00;;;;5113868;28;20221;-75
2022/06/28 09:11:20;;;;;;;0.50;0.50;;;;;22.40;98715.00;;;;5113805;28;20222;-74
2022/06/28 09:13:49;;;;;;;0.40;0.40;;;;;22.50;98720.00;;;;5113872;28;20626;-73
2022/06/28 09:16:19;;;;;;;0.47;0.47;;;;;22.60;98719.00;;;;5113767;28;20202;-74
2022/06/28 09:18:47;;;;;;;1.05;1.05;;;;;22.60;98725.00;;;;5113872;28;20186;-74
2022/06/28 09:21:16;;;;;;;0.40;0.40;;;;;22.60;98727.00;;;;5113774;28;20202;-73
2022/06/28 09:23:49;;;;;;;0.47;0.47;;;;;22.80;98717.00;;;;5113718;28;20214;-72
2022/06/28 09:26:20;;;;;;;1.65;1.25;;;;;23.10;98716.00;;;;5113681;28;20202;-74
2022/06/28 09:28:49;;;;;;;0.68;0.68;;;;;23.10;98713.00;;;;5113691;28;20233;-74
2022/06/28 09:31:19;;;;;;;0.32;0.32;;;;;22.90;98726.00;;;;5113775;28;20277;-73
2022/06/28 09:33:47;;;;;;;0.30;0.30;;;;;22.80;98723.00;;;;5113614;28;20197;-73
2022/06/28 09:36:18;;;;;;;0.50;0.50;;;;;23.00;98725.00;;;;5113567;28;20222;-73
2022/06/28 09:38:45;;;;;;;0.68;0.68;;;;;22.90;98725.00;;;;5113536;28;20202;-74
2022/06/28 09:41:23;;;;;;;0.40;0.40;;;;;23.00;98732.00;;;;5113385;28;20286;-72
2022/06/28 09:43:56;;;;;;;0.43;0.43;;;;;23.10;98725.00;;;;5115574;28;20218;-71
2022/06/28 09:46:26;;;;;;;0.50;0.50;;;;;23.10;98723.00;;;;5116959;28;20277;-71
2022/06/28 09:48:58;;;;;;;0.63;0.63;;;;;23.20;98734.00;;;;5116767;28;20214;-71
2022/06/28 09:51:26;;;;;;;0.73;0.73;;;;;23.10;98731.00;;;;5098965;28;20225;-71
2022/06/28 09:53:56;;;;;;;0.40;0.40;;;;;23.20;98726.00;;;;5116866;28;20186;-70
2022/06/28 09:56:27;;;;;;;0.30;0.30;;;;;23.30;98719.00;;;;5116892;28;20225;-71
2022/06/28 09:58:54;;;;;;;0.55;0.55;;;;;23.30;98724.00;;;;5116901;28;20198;-71
2022/06/28 10:01:21;;;;;;;0.35;0.35;;;;;23.20;98721.00;;;;5098691;28;20687;-72
2022/06/28 10:03:49;;;;;;;0.50;0.50;;;;;23.40;98715.00;;;;5116644;28;20214;-73
2022/06/28 10:06:18;;;;;;;0.90;0.90;;;;;23.40;98715.00;;;;5116766;28;20648;-71
2022/06/28 10:08:46;;;;;;;0.40;0.40;;;;;23.50;98716.00;;;;5116453;28;20218;-72
2022/06/28 10:11:14;;;;;;;0.90;0.63;;;;;23.70;98708.00;;;;5116706;28;20517;-73
2022/06/28 10:16:40;;;;;;;0.45;0.45;;;;;23.90;98697.00;;;;5116496;28;20213;-73
2022/06/28 10:19:08;;;;;;;0.50;0.50;;;;;24.10;98693.00;;;;5116580;28;20221;-75
2022/06/28 10:22:07;;;;;;;0.43;0.43;;;;;24.20;98690.00;;;;5116358;28;20602;-70
2022/06/28 10:24:50;;;;;;;0.40;0.40;;;;;24.40;98684.00;;;;5116537;28;20209;-72
2022/06/28 10:27:18;;;;;;;0.57;0.57;;;;;24.70;98675.00;;;;5116286;28;20226;-72
2022/06/28 10:30:22;;;;;;;0.68;0.68;;;;;24.70;98670.00;;;;5116391;28;20194;-72
2022/06/28 10:32:51;;;;;;;10.65;0.93;;;;;24.90;98681.00;;;;5116185;28;20276;-73
2022/06/28 10:36:00;;;;;;;0.40;0.40;;;;;25.20;98676.00;;;;5116315;28;20278;-73
2022/06/28 10:38:27;;;;;;;0.40;0.40;;;;;25.20;98676.00;;;;5116180;28;20204;-74
2022/06/28 10:40:55;;;;;;;0.60;0.60;;;;;25.30;98671.00;;;;5116199;28;20667;-73
2022/06/28 10:43:44;;;;;;;0.50;0.50;;;;;25.50;98677.00;;;;5116201;28;20266;-73
2022/06/28 10:46:12;;;;;;;0.40;0.40;;;;;25.20;98679.00;;;;5116183;28;20211;-73
2022/06/28 10:49:00;;;;;;;0.40;0.40;;;;;25.20;98670.00;;;;5116063;28;20240;-73
2022/06/28 10:51:27;;;;;;;0.50;0.50;;;;;25.50;98666.00;;;;5115994;28;20230;-73
2022/06/28 10:54:05;;;;;;;0.50;0.50;;;;;25.70;98668.00;;;;5115901;28;20197;-71
2022/06/28 10:56:35;;;;;;;0.50;0.50;;;;;25.70;98656.00;;;;5115440;28;20217;-71
2022/06/28 10:59:05;;;;;;;0.60;0.60;;;;;25.50;98650.00;;;;5115967;28;20209;-70
2022/06/28 11:01:57;;;;;;;0.40;0.40;;;;;25.70;98646.00;;;;5115759;28;20201;-74
2022/06/28 11:04:29;;;;;;;0.50;0.50;;;;;26.00;98636.00;;;;5115783;28;20285;-73
2022/06/28 11:07:04;;;;;;;0.40;0.40;;;;;26.00;98632.00;;;;5115767;28;20217;-73
2022/06/28 11:09:55;;;;;;;0.60;0.60;;;;;25.80;98628.00;;;;5115600;28;20222;-75
2022/06/28 11:12:36;;;;;;;0.40;0.40;;;;;25.80;98617.00;;;;5115694;28;20539;-76
2022/06/28 11:15:06;;;;;;;0.63;0.63;;;;;25.70;98614.00;;;;5115563;28;20298;-74
2022/06/28 11:17:37;;;;;;;0.60;0.60;;;;;25.90;98610.00;;;;5115694;28;20210;-73
2022/06/28 11:20:06;;;;;;;0.50;0.50;;;;;26.10;98605.00;;;;5115426;28;20229;-75
2022/06/28 11:22:39;;;;;;;0.50;0.50;;;;;26.50;98600.00;;;;5115559;28;20182;-75
2022/06/28 11:25:09;;;;;;;0.50;0.50;;;;;26.60;98589.00;;;;5115447;28;20205;-74
2022/06/28 11:27:42;;;;;;;0.50;0.50;;;;;26.60;98597.00;;;;5115401;28;20286;-76
2022/06/28 11:30:11;;;;;;;0.40;0.40;;;;;26.40;98579.00;;;;5115459;28;20194;-75
2022/06/28 11:32:39;;;;;;;0.40;0.40;;;;;26.50;98594.00;;;;5115261;28;20657;-75
2022/06/28 11:35:12;;;;;;;0.50;0.50;;;;;26.40;98588.00;;;;5115319;28;20702;-74
2022/06/28 11:37:50;;;;;;;0.50;0.50;;;;;26.30;98584.00;;;;5115194;28;20650;-74
2022/06/28 11:40:17;;;;;;;0.65;0.65;;;;;26.30;98580.00;;;;5115343;28;20206;-74
2022/06/28 11:42:48;;;;;;;0.57;0.57;;;;;26.50;98578.00;;;;5115115;28;20229;-74
2022/06/28 11:45:17;;;;;;;0.50;0.50;;;;;26.60;98572.00;;;;5115171;28;20291;-73
2022/06/28 11:47:47;;;;;;;0.47;0.47;;;;;27.00;98583.00;;;;5115076;28;20221;-71
2022/06/28 11:50:17;;;;;;;0.75;0.75;;;;;27.10;98582.00;;;;5115176;28;20197;-73
2022/06/28 11:52:49;;;;;;;0.50;0.50;;;;;27.30;98588.00;;;;5115153;28;20285;-72
2022/06/28 11:55:19;;;;;;;0.50;0.50;;;;;27.60;98590.00;;;;5114944;28;20268;-73
2022/06/28 11:57:46;;;;;;;0.55;0.55;;;;;27.90;98583.00;;;;5114950;28;20205;-73
2022/06/28 12:00:14;;;;;;;0.82;0.82;;;;;28.20;98572.00;;;;5114913;28;20221;-73
2022/06/28 12:02:51;;;;;;;1.25;1.25;;;;;28.50;98577.00;;;;5114954;28;20214;-73
2022/06/28 12:05:32;;;;;;;0.93;0.93;;;;;28.20;98584.00;;;;5114930;28;20201;-72
2022/06/28 12:08:03;;;;;;;0.65;0.65;;;;;28.40;98585.00;;;;5114832;28;20213;-72
2022/06/28 12:10:32;;;;;;;0.50;0.50;;;;;28.00;98594.00;;;;5114849;28;20194;-72
2022/06/28 12:13:11;;;;;;;0.47;0.47;;;;;27.80;98581.00;;;;5114826;28;20222;-72
2022/06/28 12:15:38;;;;;;;0.50;0.50;;;;;28.10;98591.00;;;;5114843;28;20259;-74
2022/06/28 12:18:08;;;;;;;0.50;0.50;;;;;28.40;98581.00;;;;5114577;28;20687;-72
2022/06/28 12:20:35;;;;;;;0.50;0.50;;;;;28.30;98587.00;;;;5114550;28;20204;-72
2022/06/28 12:23:04;;;;;;;0.50;0.50;;;;;28.60;98575.00;;;;5114594;28;20289;-75
2022/06/28 12:25:35;;;;;;;0.50;0.50;;;;;28.70;98574.00;;;;5114565;28;20186;-73
2022/06/28 12:28:02;;;;;;;0.47;0.47;;;;;29.00;98565.00;;;;5114485;28;20229;-76
2022/06/28 12:30:29;;;;;;;0.75;0.75;;;;;29.00;98574.00;;;;5114363;28;20210;-75
2022/06/28 12:32:57;;;;;;;1.42;1.10;;;;;29.20;98575.00;;;;5114493;28;20205;-76
2022/06/28 12:35:27;;;;;;;0.70;0.70;;;;;29.40;98589.00;;;;5114259;28;20287;-74
2022/06/28 12:37:55;;;;;;;0.75;0.75;;;;;29.10;98581.00;;;;5114286;28;20640;-75
2022/06/28 12:40:25;;;;;;;0.93;0.93;;;;;28.70;98578.00;;;;5114324;28;20206;-73
2022/06/28 12:42:52;;;;;;;0.80;0.80;;;;;28.40;98565.00;;;;5114324;28;20286;-73